This is the latest recevied weather packets stored in our database for station/object KC1HBM. If no packets are shown the sender has not sent any weather packets the latest 1 day(s).
| Time | Temp. | Humidity | Pressure | Rain* | Wind** | Luminosity | Snow |
|---|---|---|---|---|---|---|---|
| 1778005647 | 17.22° C | 71% | 1003.7 hPa | 0 mm | 3.13 m/s, 51° | 101 W/m² | - |
| 1778005344 | 16.67° C | 72% | 1003.6 hPa | 0 mm | 1.34 m/s, 269° | 534 W/m² | - |
| 1778005040 | 16.11° C | 74% | 1003.7 hPa | 0 mm | 1.34 m/s, 0° | 171 W/m² | - |
| 1778004738 | 16.11° C | 75% | 1004 hPa | 0 mm | 2.68 m/s, 43° | 138 W/m² | - |
| 1778004434 | 16.11° C | 75% | 1003.8 hPa | 0 mm | 1.34 m/s, 30° | 81 W/m² | - |
| 1778004131 | 15.56° C | 75% | 1004.2 hPa | 0 mm | 1.34 m/s, 354° | 92 W/m² | - |
| 1778003827 | 15.56° C | 75% | 1004.1 hPa | 0 mm | 1.34 m/s, 337° | 161 W/m² | - |
| 1778003523 | 16.11° C | 75% | 1004 hPa | 0 mm | 1.79 m/s, 277° | 635 W/m² | - |
| 1778003220 | 16.11° C | 74% | 1004.4 hPa | 0 mm | 0.45 m/s, 346° | 205 W/m² | - |
| 1778002915 | 16.67° C | 73% | 1004.2 hPa | 0 mm | 1.79 m/s, 1° | 538 W/m² | - |
| 1778002613 | 17.22° C | 71% | 1004.5 hPa | 0 mm | 2.68 m/s, 229° | 616 W/m² | - |
| 1778002310 | 16.67° C | 74% | 1004.4 hPa | 0 mm | 1.34 m/s, 320° | 656 W/m² | - |
| 1778002007 | 16.67° C | 73% | 1004.5 hPa | 0 mm | 0.45 m/s, 340° | 675 W/m² | - |
| 1778001704 | 16.11° C | 73% | 1004.6 hPa | 0 mm | 2.24 m/s, 33° | 685 W/m² | - |
| 1778001404 | 16.67° C | 73% | 1004.6 hPa | 0 mm | 1.79 m/s, 338° | 622 W/m² | - |
| 1778001101 | 16.67° C | 73% | 1004.4 hPa | 0 mm | 1.34 m/s, 299° | 656 W/m² | - |
| 1778000798 | 17.22° C | 71% | 1004.7 hPa | 0 mm | 2.24 m/s, 48° | 630 W/m² | - |
| 1778000495 | 17.22° C | 71% | 1005.1 hPa | 0 mm | 1.79 m/s, 338° | 628 W/m² | - |
| 1778000189 | 18.33° C | 68% | 1005.1 hPa | 0 mm | 0.89 m/s, 28° | 645 W/m² | - |
| 1777999886 | 17.78° C | 69% | 1005.2 hPa | 0 mm | 1.34 m/s, 64° | 658 W/m² | - |
| 1777999581 | 18.89° C | 67% | 1004.9 hPa | 0 mm | 1.79 m/s, 270° | 651 W/m² | - |
| 1777999279 | 18.33° C | 68% | 1004.9 hPa | 0 mm | 0.89 m/s, 312° | 657 W/m² | - |
| 1777998977 | 17.78° C | 70% | 1005 hPa | 0 mm | 0.45 m/s, 214° | 651 W/m² | - |
| 1777998674 | 17.22° C | 70% | 1005.3 hPa | 0 mm | 0 m/s | 604 W/m² | - |
| 1777998372 | 17.22° C | 71% | 1005.3 hPa | 0 mm | 0.89 m/s, 354° | 630 W/m² | - |
* Rain latest hour (hover to see other rain measurements)
** Current wind speed in m/s (hover to see current wind gust speed)